Bookmark and Share
Track history (hours):
 

Diane G

Last reported at 2014-Apr-24 10:33 UTC. Time now 2014-Apr-24 11:19 UTC.
Position N 32°43' W 117°11'.

Length 35 m; draft 2.5 m.

Type: Military. MMSI: 369970281.

NotesDate/timePositionNaut miles runAvg speedWind from/ knotsBaromVisibWave heightAir tempDewpointWater temp
2014-Apr-24 10:33N 32°43' W 117°11'0 0.0
2014-Apr-24 09:33N 32°43' W 117°11'0 0.0
2014-Apr-24 08:33N 32°43' W 117°11'0 0.0
2014-Apr-24 07:33N 32°43' W 117°11'0 0.0
2014-Apr-24 06:33N 32°43' W 117°11'0 0.0
2014-Apr-24 05:27N 32°43' W 117°11'0 0.0
2014-Apr-24 04:33N 32°43' W 117°11'0 0.0
2014-Apr-24 03:33N 32°43' W 117°11'0 0.0
2014-Apr-24 02:33N 32°43' W 117°11'0 0.0
2014-Apr-24 01:33N 32°43' W 117°11'0 0.0
2014-Apr-24 00:33N 32°43' W 117°11'1 0.8
2014-Apr-23 23:33N 32°43' W 117°12'7 7.0
2014-Apr-23 22:34N 32°37' W 117°17'1 1.1
2014-Apr-23 21:23N 32°38' W 117°19'1 0.9
2014-Apr-23 20:33N 32°38' W 117°20'1 0.6
2014-Apr-23 19:33N 32°38' W 117°20'1 1.0
2014-Apr-23 18:33N 32°38' W 117°21'1 0.5
2014-Apr-23 17:33N 32°38' W 117°22'0 0.2
2014-Apr-23 16:33N 32°38' W 117°22'0 0.2
2014-Apr-23 15:33N 32°38' W 117°22'0 0.4
2014-Apr-23 14:34N 32°38' W 117°23'9 4.3
2014-Apr-23 12:33N 32°42' W 117°14'2 2.4
2014-Apr-23 11:32N 32°43' W 117°11'0 0.0
2014-Apr-23 10:32N 32°43' W 117°11'0 0.0
2014-Apr-23 09:32N 32°43' W 117°11'0 0.0
2014-Apr-23 08:32N 32°43' W 117°11'0 0.0
2014-Apr-23 07:32N 32°43' W 117°11'0 0.0
2014-Apr-23 06:29N 32°43' W 117°11'0 0.0
2014-Apr-23 05:26N 32°43' W 117°11'0 0.0
2014-Apr-23 04:33N 32°43' W 117°11'0 0.0
2014-Apr-23 03:34N 32°43' W 117°11'0 0.0
2014-Apr-23 02:33N 32°43' W 117°11'0 0.3
2014-Apr-23 01:33N 32°43' W 117°12'8 7.6
2014-Apr-23 00:27N 32°36' W 117°16'1 1.0
2014-Apr-22 23:13N 32°36' W 117°18'1 0.8
2014-Apr-22 22:24N 32°36' W 117°18'1 1.0
2014-Apr-22 21:33N 32°36' W 117°19'1 1.1
2014-Apr-22 20:33N 32°36' W 117°21'0 0.2
2014-Apr-22 19:34N 32°36' W 117°21'1 0.7
2014-Apr-22 18:34N 32°37' W 117°22'0 0.2
2014-Apr-22 17:33N 32°37' W 117°21'0 0.5
2014-Apr-22 16:34N 32°37' W 117°22'7 6.3
2014-Apr-22 15:31N 32°39' W 117°14'5 5.5
2014-Apr-22 14:34N 32°43' W 117°11'0 0.0
2014-Apr-22 13:34N 32°43' W 117°11'0 0.0
2014-Apr-22 12:34N 32°43' W 117°11'0 0.0
2014-Apr-22 11:34N 32°43' W 117°11'0 0.0
2014-Apr-22 10:34N 32°43' W 117°11'0 0.0
2014-Apr-22 09:34N 32°43' W 117°11'0 0.0
2014-Apr-22 08:34N 32°43' W 117°11'0 0.0
2014-Apr-22 07:34N 32°43' W 117°11'0 0.0
2014-Apr-22 06:34N 32°43' W 117°11'0 0.0
2014-Apr-22 05:31N 32°43' W 117°11'0 0.0
2014-Apr-22 04:34N 32°43' W 117°11'0 0.0
2014-Apr-22 03:34N 32°43' W 117°11'0 0.0
2014-Apr-22 02:34N 32°43' W 117°11'0 0.0
2014-Apr-22 01:34N 32°43' W 117°11'0 0.0
2014-Apr-22 00:34N 32°43' W 117°11'0 0.0
2014-Apr-21 23:34N 32°43' W 117°11'0 0.0
2014-Apr-21 22:33N 32°43' W 117°11'0 0.0
2014-Apr-21 21:33N 32°43' W 117°11'0 0.0
2014-Apr-21 20:33N 32°43' W 117°11'27 3.8
2014-Apr-21 13:23N 33°00' W 117°37'7 8.8
2014-Apr-21 12:34N 33°04' W 117°44'9 8.7
2014-Apr-21 11:34N 33°09' W 117°53'9 8.6
2014-Apr-21 10:33N 33°14' W 118°01'9 8.9
2014-Apr-21 09:29N 33°20' W 118°10'44 9.0
2014-Apr-21 04:33N 33°49' W 118°50'  
2014-Apr-16 13:26N 33°43' W 118°42'8 8.9
2014-Apr-16 12:33N 33°38' W 118°35'10 8.7
2014-Apr-16 11:27N 33°31' W 118°27'8 8.7
2014-Apr-16 10:30N 33°26' W 118°20'9 9.1
2014-Apr-16 09:33N 33°20' W 118°12'9 8.8
2014-Apr-16 08:33N 33°13' W 118°05'9 9.0
2014-Apr-16 07:33N 33°07' W 117°57'9 9.0
2014-Apr-16 06:33N 33°01' W 117°49'9 8.8
2014-Apr-16 05:33N 32°54' W 117°43'9 8.8
2014-Apr-16 04:33N 32°48' W 117°35'9 9.0
2014-Apr-16 03:33N 32°42' W 117°27'8 7.9
2014-Apr-16 02:33N 32°37' W 117°20'2 2.0
2014-Apr-16 01:33N 32°38' W 117°18'3 2.9
2014-Apr-16 00:33N 32°40' W 117°15'4 3.8
2014-Apr-15 23:34N 32°37' W 117°19'1 1.2
2014-Apr-15 22:31N 32°36' W 117°20'5 5.3
2014-Apr-15 21:33N 32°38' W 117°25'2 1.5
2014-Apr-15 20:32N 32°37' W 117°23'5 4.5
2014-Apr-15 19:19N 32°37' W 117°17'5 6.8
2014-Apr-15 18:32N 32°42' W 117°14'3 2.6
2014-Apr-15 17:31N 32°43' W 117°11'0 0.0
2014-Apr-15 16:31N 32°43' W 117°11'0 0.0
2014-Apr-15 15:31N 32°43' W 117°11'0 0.0
2014-Apr-15 14:31N 32°43' W 117°11'0 0.0
2014-Apr-15 12:31N 32°43' W 117°11'0 0.0
2014-Apr-15 11:31N 32°43' W 117°11'0 0.0
2014-Apr-15 10:31N 32°43' W 117°11'0 0.0
2014-Apr-15 09:31N 32°43' W 117°11'0 0.0
2014-Apr-15 08:31N 32°43' W 117°11'0 0.0
2014-Apr-15 07:31N 32°43' W 117°11'0 0.0
2014-Apr-15 06:31N 32°43' W 117°11'3 3.2
2014-Apr-15 05:34N 32°41' W 117°14'11 5.4
2014-Apr-15 03:34N 32°38' W 117°26'8 7.7
2014-Apr-15 02:34N 32°38' W 117°17'6 6.3
2014-Apr-15 01:34N 32°43' W 117°13'1 1.3
2014-Apr-15 00:31N 32°43' W 117°11'0 0.0
2014-Apr-14 23:31N 32°43' W 117°11'3 3.1
2014-Apr-14 22:34N 32°41' W 117°14'6 6.0
2014-Apr-14 21:34N 32°38' W 117°20'2 1.9
2014-Apr-14 20:33N 32°36' W 117°21'1 1.2
2014-Apr-14 19:34N 32°37' W 117°23'2 2.1
2014-Apr-14 18:34N 32°38' W 117°20'6 6.1
2014-Apr-14 17:33N 32°41' W 117°14'3 3.0
2014-Apr-14 16:32N 32°43' W 117°11'0 0.0
2014-Apr-14 14:32N 32°43' W 117°11'0 0.0
2014-Apr-14 13:32N 32°43' W 117°11'0 0.0
2014-Apr-14 11:32N 32°43' W 117°11'  

Dump ship's entire track history

sailing weather and tide predictions

Diane G — DIANEG — position and weather